Time;durP1;ratioP1;P1;durP2;ratioP2;P2;SDS_P1;SDS_P2;PMS_P1;PMS_P2;Temp;Humidity;BMP_temperature;BMP_pressure;BME280_temperature;BME280_humidity;BME280_pressure;Samples;Min_cycle;Max_cycle;Signal;HPM_P1;HPM_P2
2021/12/06 00:02:28;;;;;;;28.65;11.77;;;2.10;99.90;;;;;;4863566;29;20050;-76
2021/12/06 00:04:58;;;;;;;25.73;10.30;;;2.00;99.90;;;;;;4863260;29;20057;-75
2021/12/06 00:07:29;;;;;;;32.05;11.60;;;1.90;99.90;;;;;;4863133;29;20444;-75
2021/12/06 00:10:20;;;;;;;26.83;11.02;;;1.90;99.90;;;;;;4863114;29;20049;-75
2021/12/06 00:17:16;;;;;;;30.95;11.13;;;2.10;99.90;;;;;;4878532;29;20568;-75
2021/12/06 00:19:45;;;;;;;32.55;10.07;;;2.00;99.90;;;;;;4879350;29;20128;-75
2021/12/06 00:23:02;;;;;;;28.23;11.02;;;2.10;99.90;;;;;;4879003;29;20045;-75
2021/12/06 00:28:59;;;;;;;23.90;9.77;;;2.00;99.90;;;;;;4879315;29;20099;-75
2021/12/06 00:32:17;;;;;;;27.83;10.75;;;1.90;99.90;;;;;;4879508;29;20045;-74
2021/12/06 00:38:27;;;;;;;21.15;9.55;;;1.90;99.90;;;;;;4879770;29;20125;-75
2021/12/06 00:40:54;;;;;;;32.78;12.80;;;2.10;99.90;;;;;;4862957;29;20055;-74
2021/12/06 00:43:25;;;;;;;40.42;8.85;;;1.90;99.90;;;;;;4877424;29;20056;-75
2021/12/06 00:46:02;;;;;;;27.63;8.77;;;1.70;99.90;;;;;;4879580;29;20470;-74
2021/12/06 00:48:31;;;;;;;;;;;1.70;99.90;;;;;;4879373;29;20461;-74
2021/12/06 00:51:00;;;;;;;28.20;10.00;;;1.70;99.90;;;;;;4877273;29;20410;-74
2021/12/06 00:53:31;;;;;;;25.30;10.45;;;1.70;99.90;;;;;;4862475;29;20049;-75
2021/12/06 00:56:03;;;;;;;23.48;9.48;;;1.80;99.90;;;;;;4877638;29;20050;-75
2021/12/06 00:58:32;;;;;;;33.25;9.77;;;1.60;99.90;;;;;;4877764;29;20052;-74
2021/12/06 01:01:24;;;;;;;35.97;10.48;;;1.60;99.90;;;;;;4863571;29;20040;-73
2021/12/06 01:07:55;;;;;;;30.00;10.57;;;1.70;99.90;;;;;;4881454;29;20056;-73
2021/12/06 01:10:26;;;;;;;32.80;10.38;;;2.00;99.90;;;;;;4882186;29;20530;-74
2021/12/06 01:13:20;;;;;;;40.55;11.60;;;2.10;99.90;;;;;;4865465;29;20124;-74
2021/12/06 01:16:13;;;;;;;37.70;11.13;;;2.00;99.90;;;;;;4865219;29;20058;-74
2021/12/06 01:18:42;;;;;;;35.58;12.25;;;2.10;99.90;;;;;;4882546;29;20049;-74
2021/12/06 01:21:22;;;;;;;34.78;11.35;;;2.10;99.90;;;;;;4881353;29;20053;-73
2021/12/06 01:23:57;;;;;;;38.20;11.93;;;2.10;99.90;;;;;;4865743;29;20139;-74
2021/12/06 01:39:58;;;;;;;48.97;14.05;;;2.20;99.90;;;;;;4865219;29;20053;-74
2021/12/06 01:42:32;;;;;;;47.97;13.45;;;2.10;99.90;;;;;;4865554;29;20049;-73
2021/12/06 01:45:00;;;;;;;36.33;12.80;;;2.20;99.90;;;;;;4865691;29;20045;-73
2021/12/06 01:47:36;;;;;;;43.85;14.43;;;2.30;99.90;;;;;;4865309;29;20438;-74
2021/12/06 01:50:12;;;;;;;44.15;14.65;;;2.30;99.90;;;;;;4865085;29;20057;-74
2021/12/06 01:52:53;;;;;;;51.53;14.57;;;2.30;99.90;;;;;;4880591;29;20402;-73
2021/12/06 01:55:26;;;;;;;39.88;14.85;;;2.30;99.90;;;;;;4882317;29;20123;-73
2021/12/06 01:58:00;;;;;;;47.92;13.27;;;2.40;99.90;;;;;;4880761;29;20100;-73
2021/12/06 02:00:46;;;;;;;32.60;13.88;;;2.20;99.90;;;;;;4864999;29;20052;-73
2021/12/06 02:03:23;;;;;;;51.65;13.68;;;2.30;99.90;;;;;;4865044;29;20453;-73
2021/12/06 02:05:52;;;;;;;40.30;13.02;;;2.20;99.90;;;;;;4881878;29;20092;-73
2021/12/06 02:08:24;;;;;;;48.08;13.85;;;2.40;99.90;;;;;;4881633;29;20484;-74
2021/12/06 02:11:00;;;;;;;40.63;14.85;;;2.20;99.90;;;;;;4865305;29;20117;-73
2021/12/06 02:13:38;;;;;;;53.75;12.77;;;2.20;99.90;;;;;;4864443;29;20139;-74
2021/12/06 02:16:07;;;;;;;41.58;11.98;;;2.10;99.90;;;;;;4864611;29;20049;-73
2021/12/06 02:18:46;;;;;;;68.95;17.42;;;2.00;99.90;;;;;;4864893;29;20077;-75
2021/12/06 02:21:19;;;;;;;44.67;13.52;;;2.00;99.90;;;;;;4864801;29;20056;-73
2021/12/06 02:23:48;;;;;;;57.85;15.15;;;1.90;99.90;;;;;;4864866;29;20052;-73
2021/12/06 02:26:16;;;;;;;45.20;13.18;;;1.80;99.90;;;;;;4864105;29;20083;-73
2021/12/06 02:28:45;;;;;;;40.15;12.77;;;1.80;99.90;;;;;;4864514;29;20068;-73
2021/12/06 02:31:20;;;;;;;47.30;15.30;;;1.90;99.90;;;;;;4880156;29;20049;-73
2021/12/06 02:33:52;;;;;;;62.90;12.48;;;2.00;99.90;;;;;;4864525;29;20065;-73
2021/12/06 02:36:26;;;;;;;52.50;15.00;;;1.90;99.90;;;;;;4881170;29;20133;-73
2021/12/06 02:38:55;;;;;;;47.70;13.57;;;1.90;99.90;;;;;;4864485;29;20072;-73
2021/12/06 02:41:31;;;;;;;42.10;13.02;;;1.90;99.90;;;;;;4864369;29;20069;-74
2021/12/06 02:43:58;;;;;;;36.80;11.13;;;1.90;99.90;;;;;;4879462;29;20471;-74
2021/12/06 02:46:45;;;;;;;46.85;12.13;;;1.90;99.90;;;;;;4864515;29;20052;-73
2021/12/06 02:49:12;;;;;;;39.92;13.48;;;1.80;99.90;;;;;;4880492;29;21242;-73
2021/12/06 02:52:06;;;;;;;41.05;12.02;;;1.80;99.90;;;;;;4864150;29;20060;-73
2021/12/06 02:54:39;;;;;;;32.78;12.65;;;1.80;99.90;;;;;;4864442;29;20053;-73
2021/12/06 02:57:20;;;;;;;38.40;12.52;;;1.80;99.90;;;;;;4880711;29;20052;-73
2021/12/06 02:59:53;;;;;;;38.05;12.27;;;2.00;99.90;;;;;;4864106;29;20097;-73
2021/12/06 03:02:20;;;;;;;48.67;13.35;;;2.10;99.90;;;;;;4879471;29;20466;-73
2021/12/06 03:05:43;;;;;;;42.97;13.63;;;2.10;99.90;;;;;;4863518;29;20049;-73
2021/12/06 03:08:11;;;;;;;45.95;12.63;;;2.10;99.90;;;;;;4863807;29;20508;-73
2021/12/06 03:10:45;;;;;;;40.58;13.80;;;2.20;99.90;;;;;;4863945;29;20080;-73
2021/12/06 03:13:16;;;;;;;38.03;11.27;;;2.20;99.90;;;;;;4863878;29;20140;-73
2021/12/06 03:15:49;;;;;;;43.20;12.02;;;2.30;99.90;;;;;;4880662;29;20048;-73
2021/12/06 03:18:16;;;;;;;30.42;10.55;;;2.10;99.90;;;;;;4879263;29;20057;-73
2021/12/06 03:20:50;;;;;;;54.63;11.38;;;2.00;99.90;;;;;;4880407;29;20070;-73
2021/12/06 03:23:22;;;;;;;29.75;11.77;;;2.10;99.90;;;;;;4863154;29;20049;-73
2021/12/06 03:25:53;;;;;;;34.80;12.15;;;2.10;99.90;;;;;;4863095;29;20049;-73
2021/12/06 03:28:20;;;;;;;30.27;12.00;;;2.20;99.90;;;;;;4880479;29;20045;-73
2021/12/06 03:30:53;;;;;;;36.13;11.80;;;2.40;99.90;;;;;;4878861;29;20531;-74
2021/12/06 03:33:28;;;;;;;33.22;11.07;;;2.40;99.90;;;;;;4880337;29;20045;-74
2021/12/06 03:35:58;;;;;;;36.55;13.00;;;2.30;99.90;;;;;;4880701;29;20081;-74
2021/12/06 03:38:29;;;;;;;37.33;12.00;;;2.40;99.90;;;;;;4863492;29;20235;-74
2021/12/06 03:41:00;;;;;;;24.77;10.23;;;2.30;99.90;;;;;;4862638;29;20500;-74
2021/12/06 03:43:27;;;;;;;27.33;9.82;;;2.20;99.90;;;;;;4880226;29;20041;-74
2021/12/06 03:46:00;;;;;;;43.65;11.98;;;2.20;99.90;;;;;;4863656;29;20121;-74
2021/12/06 03:48:28;;;;;;;31.08;10.27;;;2.30;99.90;;;;;;4862781;29;20053;-74
2021/12/06 03:51:00;;;;;;;40.22;10.90;;;2.20;99.90;;;;;;4863314;29;20057;-74
2021/12/06 03:53:31;;;;;;;27.38;11.27;;;2.10;99.90;;;;;;4878469;29;20048;-74
2021/12/06 03:56:24;;;;;;;28.92;10.90;;;2.10;99.90;;;;;;4878777;29;20045;-74
2021/12/06 03:59:10;;;;;;;40.70;12.20;;;2.20;99.90;;;;;;4862540;29;20051;-74
2021/12/06 04:01:38;;;;;;;29.02;10.00;;;2.10;99.90;;;;;;4863116;29;20397;-74
2021/12/06 04:04:10;;;;;;;39.42;11.48;;;2.00;99.90;;;;;;4862579;29;20045;-74
2021/12/06 04:10:01;;;;;;;23.42;9.82;;;1.90;99.90;;;;;;4861775;29;20041;-74
2021/12/06 04:12:35;;;;;;;26.73;10.02;;;1.80;99.90;;;;;;4862804;29;20063;-74
2021/12/06 04:15:07;;;;;;;19.77;7.95;;;1.80;99.90;;;;;;4863076;29;20081;-73
2021/12/06 04:17:38;;;;;;;28.55;9.18;;;1.80;99.90;;;;;;4879420;29;20117;-73
2021/12/06 04:20:11;;;;;;;32.40;11.10;;;1.80;99.90;;;;;;4862825;29;20084;-74
2021/12/06 04:22:40;;;;;;;22.17;9.40;;;1.80;99.90;;;;;;4862667;29;20124;-73
2021/12/06 04:25:15;;;;;;;36.95;12.35;;;1.80;99.90;;;;;;4862865;29;20097;-73
2021/12/06 04:27:44;;;;;;;33.88;10.88;;;1.80;99.90;;;;;;4862068;29;20060;-73
2021/12/06 04:30:13;;;;;;;31.45;11.10;;;1.90;99.90;;;;;;4879553;29;20056;-73
2021/12/06 04:32:40;;;;;;;28.90;10.00;;;1.90;99.90;;;;;;4877591;29;20049;-73
2021/12/06 04:35:14;;;;;;;21.45;9.23;;;1.90;99.90;;;;;;4878047;29;20136;-73
2021/12/06 04:37:48;;;;;;;26.80;10.70;;;1.90;99.90;;;;;;4879425;29;20059;-74
2021/12/06 04:40:15;;;;;;;29.75;10.05;;;1.90;99.90;;;;;;4878151;29;20073;-73
2021/12/06 04:42:45;;;;;;;26.65;10.30;;;1.90;99.90;;;;;;4878628;29;20049;-74
2021/12/06 04:45:16;;;;;;;25.85;9.43;;;2.00;99.90;;;;;;4879290;29;20072;-74
2021/12/06 04:47:44;;;;;;;37.25;10.63;;;2.00;99.90;;;;;;4862260;29;20060;-74
2021/12/06 04:50:14;;;;;;;37.90;10.95;;;2.00;99.90;;;;;;4862278;29;20068;-74
2021/12/06 04:52:43;;;;;;;34.35;10.60;;;2.00;99.90;;;;;;4879808;29;20048;-74
2021/12/06 04:55:26;;;;;;;30.58;10.48;;;2.10;99.90;;;;;;4880795;29;20053;-74
2021/12/06 04:57:54;;;;;;;34.53;11.25;;;2.10;99.90;;;;;;4880104;29;20045;-74
2021/12/06 05:00:48;;;;;;;59.67;13.07;;;2.00;99.90;;;;;;4896261;29;20127;-74
2021/12/06 05:03:18;;;;;;;30.85;10.45;;;2.10;99.90;;;;;;4880255;29;20100;-74
2021/12/06 05:05:54;;;;;;;26.88;10.80;;;2.00;99.90;;;;;;4881125;29;20045;-74
2021/12/06 05:08:31;;;;;;;26.15;11.43;;;2.00;99.90;;;;;;4880938;29;20045;-74
2021/12/06 05:11:02;;;;;;;32.67;10.10;;;2.10;99.90;;;;;;4896849;29;20511;-74
2021/12/06 05:13:57;;;;;;;35.55;11.13;;;2.00;99.90;;;;;;4897758;29;20400;-74
2021/12/06 05:16:52;;;;;;;34.65;11.10;;;2.10;99.90;;;;;;4880272;29;20147;-74
2021/12/06 05:19:37;;;;;;;28.15;10.05;;;2.20;99.90;;;;;;4880292;29;20120;-74
2021/12/06 05:22:08;;;;;;;27.75;10.70;;;2.10;99.90;;;;;;4879982;29;20048;-75
2021/12/06 05:28:28;;;;;;;32.35;10.10;;;2.10;99.90;;;;;;4895331;29;20068;-74
2021/12/06 05:39:00;;;;;;;30.38;10.65;;;2.10;99.90;;;;;;4896404;29;20040;-75
2021/12/06 05:42:17;;;;;;;29.77;11.07;;;2.00;99.90;;;;;;4897798;29;20037;-75
2021/12/06 05:44:49;;;;;;;;;;;2.00;99.90;;;;;;4897994;29;20452;-74
2021/12/06 05:47:23;;;;;;;28.27;11.70;;;2.20;99.90;;;;;;4898522;29;20030;-74
2021/12/06 05:49:50;;;;;;;20.73;8.85;;;2.10;99.90;;;;;;4884007;29;20087;-74
2021/12/06 05:53:08;;;;;;;32.33;11.32;;;2.10;99.90;;;;;;4900800;29;20503;-73
2021/12/06 05:56:06;;;;;;;25.58;11.02;;;2.00;99.90;;;;;;4898861;29;20115;-73
2021/12/06 05:58:36;;;;;;;28.02;10.02;;;2.00;99.90;;;;;;4884309;29;20176;-73
2021/12/06 06:01:05;;;;;;;28.13;10.65;;;2.00;99.90;;;;;;4883513;29;20188;-73
2021/12/06 06:03:32;;;;;;;26.55;10.88;;;2.00;99.90;;;;;;4900190;29;20044;-73
2021/12/06 06:06:07;;;;;;;29.38;12.18;;;2.00;99.90;;;;;;4899244;29;20140;-74
2021/12/06 06:08:37;;;;;;;30.73;11.77;;;2.20;99.90;;;;;;4900347;29;20041;-74
2021/12/06 06:11:04;;;;;;;22.25;10.93;;;2.20;99.90;;;;;;4899966;29;20037;-74
2021/12/06 06:13:32;;;;;;;28.85;12.13;;;2.20;99.90;;;;;;4900049;29;20047;-74
2021/12/06 06:16:02;;;;;;;25.00;10.88;;;2.30;99.90;;;;;;4898858;29;20120;-74
2021/12/06 06:18:36;;;;;;;24.33;11.38;;;2.30;99.90;;;;;;4900286;29;20108;-73
2021/12/06 06:21:05;;;;;;;32.40;14.45;;;2.20;99.90;;;;;;4900216;29;20119;-73
2021/12/06 06:23:36;;;;;;;33.88;16.50;;;2.20;99.90;;;;;;4883352;29;20056;-74
2021/12/06 06:26:03;;;;;;;44.13;20.65;;;2.10;99.90;;;;;;4900239;29;20124;-74
2021/12/06 06:28:36;;;;;;;30.88;14.55;;;2.20;99.90;;;;;;4899224;29;20043;-73
2021/12/06 06:31:03;;;;;;;38.03;17.90;;;2.40;99.90;;;;;;4883268;29;20045;-73
2021/12/06 06:33:43;;;;;;;34.10;15.63;;;2.40;99.90;;;;;;4882261;29;20048;-73
2021/12/06 06:36:11;;;;;;;26.88;14.02;;;2.40;99.90;;;;;;4899708;29;20112;-73
2021/12/06 06:38:49;;;;;;;32.53;16.38;;;2.40;99.90;;;;;;4900366;29;20048;-73
2021/12/06 06:41:17;;;;;;;33.83;15.43;;;2.40;99.90;;;;;;4897829;29;20049;-72
2021/12/06 06:43:47;;;;;;;31.80;14.40;;;2.50;99.90;;;;;;4898615;29;20045;-72
2021/12/06 06:46:14;;;;;;;29.45;13.85;;;2.60;99.90;;;;;;4882260;29;20051;-74
2021/12/06 06:48:42;;;;;;;29.92;12.57;;;2.70;99.90;;;;;;4898935;29;20135;-74
2021/12/06 06:51:13;;;;;;;29.33;12.23;;;2.70;99.90;;;;;;4879599;29;20139;-73
2021/12/06 06:53:40;;;;;;;29.73;12.77;;;2.60;99.90;;;;;;4895337;29;20083;-73
2021/12/06 06:56:32;;;;;;;30.35;13.68;;;2.80;99.90;;;;;;4880943;29;20048;-73
2021/12/06 06:59:03;;;;;;;27.70;11.07;;;2.90;99.90;;;;;;4878676;29;20568;-73
2021/12/06 07:01:33;;;;;;;27.98;12.73;;;2.90;99.90;;;;;;4881530;29;20072;-73
2021/12/06 07:04:12;;;;;;;23.02;11.05;;;2.80;99.90;;;;;;4895401;29;20097;-73
2021/12/06 07:06:46;;;;;;;28.70;11.48;;;2.70;99.90;;;;;;4879665;29;20075;-74
2021/12/06 07:09:13;;;;;;;27.75;12.52;;;2.90;99.90;;;;;;4895111;29;20560;-73
2021/12/06 07:11:45;;;;;;;26.95;12.48;;;3.00;99.90;;;;;;4879873;29;20056;-73
2021/12/06 07:14:15;;;;;;;24.90;12.43;;;2.90;99.90;;;;;;4880845;29;20049;-73
2021/12/06 07:16:48;;;;;;;23.75;11.80;;;2.90;99.90;;;;;;4863983;29;20151;-73
2021/12/06 07:19:21;;;;;;;21.75;11.68;;;3.00;99.90;;;;;;4895055;29;20148;-73
2021/12/06 07:21:57;;;;;;;24.02;12.13;;;3.00;99.90;;;;;;4880823;29;20052;-73
2021/12/06 07:24:26;;;;;;;20.13;10.95;;;2.90;99.90;;;;;;4880496;29;20519;-74
2021/12/06 07:26:58;;;;;;;21.23;11.27;;;2.90;99.90;;;;;;4895201;29;20131;-73
2021/12/06 07:29:27;;;;;;;19.08;9.80;;;3.00;99.90;;;;;;4879508;29;20401;-73
2021/12/06 07:31:56;;;;;;;23.05;11.13;;;3.10;99.90;;;;;;4880539;29;20066;-73
2021/12/06 07:34:29;;;;;;;25.35;12.10;;;3.00;99.90;;;;;;4880475;29;20552;-73
2021/12/06 07:36:57;;;;;;;20.77;11.52;;;3.00;99.90;;;;;;4880358;29;20059;-74
2021/12/06 07:39:26;;;;;;;23.27;11.57;;;2.90;99.90;;;;;;4878882;29;20056;-73
2021/12/06 07:41:57;;;;;;;20.77;11.15;;;3.10;99.90;;;;;;4880790;29;20401;-74
2021/12/06 07:44:27;;;;;;;23.63;11.95;;;3.10;99.90;;;;;;4879104;29;20453;-74
2021/12/06 07:46:58;;;;;;;30.45;17.02;;;3.10;99.90;;;;;;4880266;29;20041;-74
2021/12/06 07:49:25;;;;;;;30.67;15.65;;;3.20;99.90;;;;;;4894204;29;20068;-73
2021/12/06 07:51:54;;;;;;;24.73;13.93;;;3.10;99.90;;;;;;4894196;29;20500;-74
2021/12/06 07:54:45;;;;;;;23.08;12.70;;;3.30;99.90;;;;;;4879802;29;20045;-73
2021/12/06 07:57:13;;;;;;;22.75;12.20;;;3.20;99.90;;;;;;4879973;29;20131;-73
2021/12/06 07:59:40;;;;;;;22.88;12.75;;;3.20;99.90;;;;;;4893611;29;20063;-74
2021/12/06 08:02:08;;;;;;;19.13;10.98;;;3.20;99.90;;;;;;4879638;29;20128;-74
2021/12/06 08:04:39;;;;;;;22.98;11.65;;;3.20;99.90;;;;;;4880035;29;20049;-73
2021/12/06 08:07:17;;;;;;;24.05;11.07;;;3.10;99.90;;;;;;4880143;29;20109;-74
2021/12/06 08:10:09;;;;;;;19.67;11.07;;;3.20;99.90;;;;;;4879512;29;20075;-73
2021/12/06 08:12:37;;;;;;;22.73;11.43;;;3.40;99.90;;;;;;4879679;29;20465;-74
2021/12/06 08:15:30;;;;;;;20.70;10.90;;;3.40;99.90;;;;;;4879803;29;20049;-73
2021/12/06 08:18:05;;;;;;;20.10;10.77;;;3.20;99.90;;;;;;4879727;29;20050;-75
2021/12/06 08:21:14;;;;;;;21.13;10.57;;;3.40;99.90;;;;;;4892305;29;20041;-75
2021/12/06 08:23:57;;;;;;;20.60;12.57;;;3.50;99.90;;;;;;4879594;29;20519;-74
2021/12/06 08:26:30;;;;;;;18.45;11.27;;;3.40;99.90;;;;;;4879570;29;20397;-74
2021/12/06 08:29:05;;;;;;;19.13;10.40;;;3.50;99.90;;;;;;4877871;29;20198;-73
2021/12/06 08:31:41;;;;;;;18.58;10.88;;;3.40;99.90;;;;;;4879912;29;20127;-73
2021/12/06 08:34:10;;;;;;;18.05;9.35;;;3.40;99.90;;;;;;4879866;29;20045;-73
2021/12/06 08:36:42;;;;;;;17.38;10.20;;;3.40;99.90;;;;;;4879356;29;20052;-73
2021/12/06 08:39:19;;;;;;;16.77;9.38;;;3.40;99.90;;;;;;4879462;29;20051;-73
2021/12/06 08:42:12;;;;;;;24.58;13.00;;;3.30;99.90;;;;;;4880046;29;20082;-74
2021/12/06 08:44:47;;;;;;;21.23;11.70;;;3.30;99.90;;;;;;4879932;29;20053;-75
2021/12/06 08:47:42;;;;;;;18.38;10.48;;;3.50;99.90;;;;;;4893457;29;20041;-73
2021/12/06 08:50:15;;;;;;;18.13;10.25;;;3.60;99.90;;;;;;4889755;29;20048;-73
2021/12/06 08:53:14;;;;;;;;;;;3.50;99.90;;;;;;4898359;29;20048;-75
2021/12/06 08:55:44;;;;;;;17.50;10.30;;;3.70;99.90;;;;;;4881404;29;19924;-75
2021/12/06 08:58:12;;;;;;;16.10;9.10;;;3.70;99.90;;;;;;4881623;29;20040;-74
2021/12/06 09:00:39;;;;;;;21.42;11.88;;;3.60;99.90;;;;;;4865750;29;20033;-74
2021/12/06 09:03:19;;;;;;;29.50;15.02;;;3.50;99.90;;;;;;4866890;29;20401;-74
2021/12/06 09:05:56;;;;;;;24.50;13.73;;;3.60;99.90;;;;;;4897250;29;20495;-74
2021/12/06 09:08:49;;;;;;;24.13;13.02;;;3.60;99.90;;;;;;4898361;29;20048;-74
2021/12/06 09:11:17;;;;;;;24.88;13.18;;;3.80;99.90;;;;;;4881526;29;20045;-74
2021/12/06 09:13:50;;;;;;;21.13;12.80;;;3.70;99.90;;;;;;4881338;29;20072;-75
2021/12/06 09:16:32;;;;;;;28.85;16.05;;;3.60;99.90;;;;;;4897890;29;20448;-74
2021/12/06 09:19:06;;;;;;;21.33;11.70;;;3.80;99.90;;;;;;4881991;29;20048;-74
2021/12/06 09:21:43;;;;;;;25.45;13.93;;;4.00;99.90;;;;;;4881094;29;20044;-74
2021/12/06 09:24:35;;;;;;;23.02;12.93;;;3.70;99.90;;;;;;4884882;29;20059;-74
2021/12/06 09:27:07;;;;;;;23.52;13.00;;;3.70;99.90;;;;;;4900597;29;20514;-74
2021/12/06 09:29:59;;;;;;;22.88;13.20;;;3.70;99.90;;;;;;4901110;29;20052;-74
2021/12/06 09:32:37;;;;;;;24.42;12.90;;;3.80;99.90;;;;;;4884424;29;20135;-74
2021/12/06 09:35:30;;;;;;;32.30;17.65;;;3.70;99.90;;;;;;4901634;29;20137;-75
2021/12/06 09:38:14;;;;;;;25.20;14.00;;;3.70;99.90;;;;;;4901072;29;20131;-75
2021/12/06 09:40:47;;;;;;;27.13;13.70;;;3.80;99.90;;;;;;4901324;29;20561;-75
2021/12/06 09:43:22;;;;;;;33.25;15.27;;;3.80;99.90;;;;;;4884159;29;20568;-74
2021/12/06 09:45:50;;;;;;;26.05;13.05;;;3.90;99.90;;;;;;4900742;29;20132;-74
2021/12/06 09:48:46;;;;;;;26.25;13.77;;;3.90;99.90;;;;;;4899948;29;20115;-74
2021/12/06 09:51:21;;;;;;;26.25;14.32;;;4.00;99.90;;;;;;4884987;29;20080;-75
2021/12/06 09:53:50;;;;;;;29.50;14.30;;;4.00;99.90;;;;;;4885396;29;20139;-74
2021/12/06 09:56:25;;;;;;;28.00;14.43;;;4.10;99.90;;;;;;4899717;29;20229;-73
2021/12/06 09:58:57;;;;;;;24.48;12.13;;;4.00;99.90;;;;;;4884089;29;20060;-73
2021/12/06 10:01:53;;;;;;;;;;;3.90;99.90;;;;;;4869767;29;20057;-73
2021/12/06 10:04:27;;;;;;;27.63;13.90;;;3.80;99.90;;;;;;4884636;29;19924;-73
2021/12/06 10:07:11;;;;;;;22.85;12.10;;;4.00;99.90;;;;;;4868919;29;20436;-73
2021/12/06 10:09:44;;;;;;;21.40;11.75;;;3.80;99.90;;;;;;4900544;29;20484;-73
2021/12/06 10:12:12;;;;;;;20.67;11.20;;;3.80;99.90;;;;;;4899197;29;20083;-73
2021/12/06 10:14:42;;;;;;;24.35;12.23;;;3.80;99.90;;;;;;4883572;29;20037;-73
2021/12/06 10:17:23;;;;;;;27.00;12.52;;;3.80;99.90;;;;;;4900658;29;20388;-74
2021/12/06 10:19:52;;;;;;;24.23;13.50;;;4.00;99.90;;;;;;4884114;29;20511;-74
2021/12/06 10:22:27;;;;;;;21.63;12.37;;;4.00;99.90;;;;;;4901007;29;20049;-75
2021/12/06 10:24:59;;;;;;;24.20;13.18;;;4.00;99.90;;;;;;4901268;29;20742;-74
2021/12/06 10:28:01;;;;;;;26.50;14.63;;;4.10;99.90;;;;;;4906792;29;20044;-74
2021/12/06 10:30:49;;;;;;;21.33;11.82;;;3.90;99.90;;;;;;4884908;29;20508;-74
2021/12/06 10:33:32;;;;;;;25.40;14.25;;;3.90;99.90;;;;;;4883146;29;20048;-75
2021/12/06 10:36:17;;;;;;;20.13;11.85;;;4.00;99.90;;;;;;4901036;29;20049;-75
2021/12/06 10:39:09;;;;;;;23.92;12.80;;;4.00;99.90;;;;;;4900178;29;20063;-74
2021/12/06 10:41:39;;;;;;;27.35;14.15;;;3.90;99.90;;;;;;4883395;29;20506;-74
2021/12/06 10:44:31;;;;;;;23.08;12.57;;;3.90;99.90;;;;;;4867977;29;20044;-73
2021/12/06 10:47:09;;;;;;;26.00;14.43;;;4.00;99.90;;;;;;4900571;29;20108;-75
2021/12/06 10:49:36;;;;;;;26.08;13.45;;;4.00;99.90;;;;;;4893710;29;20053;-74
2021/12/06 10:52:04;;;;;;;28.70;15.68;;;4.00;99.90;;;;;;4881558;29;20423;-75
2021/12/06 10:54:52;;;;;;;29.08;15.25;;;4.30;99.90;;;;;;4864716;29;20066;-74
2021/12/06 10:57:43;;;;;;;24.75;14.50;;;4.30;99.90;;;;;;4864075;29;20052;-73
2021/12/06 11:00:55;;;;;;;24.50;14.00;;;4.50;99.90;;;;;;4863862;29;20049;-74
2021/12/06 11:03:50;;;;;;;28.27;15.43;;;4.30;99.90;;;;;;4880412;29;20088;-74
2021/12/06 11:06:32;;;;;;;25.88;14.07;;;4.30;99.90;;;;;;4880869;29;20396;-75
2021/12/06 11:09:28;;;;;;;24.83;13.63;;;4.50;99.90;;;;;;4881052;29;20041;-75
2021/12/06 11:12:04;;;;;;;24.25;13.48;;;4.50;99.90;;;;;;4881238;29;20105;-75
2021/12/06 11:15:11;;;;;;;27.77;13.88;;;4.50;99.90;;;;;;4881167;29;20488;-76
2021/12/06 11:17:45;;;;;;;27.90;14.43;;;4.40;99.90;;;;;;4864672;29;20105;-75
2021/12/06 11:20:46;;;;;;;25.80;13.98;;;4.40;99.90;;;;;;4863534;29;20057;-75
2021/12/06 11:23:22;;;;;;;27.13;13.57;;;4.40;99.90;;;;;;4863953;29;20114;-73
2021/12/06 11:25:59;;;;;;;23.98;13.48;;;4.50;99.90;;;;;;4863538;29;20500;-73
2021/12/06 11:28:44;;;;;;;31.58;15.52;;;4.50;99.90;;;;;;4863802;29;20053;-74
2021/12/06 11:31:15;;;;;;;24.35;13.65;;;4.60;99.90;;;;;;4864029;29;20045;-74
2021/12/06 11:33:43;;;;;;;27.55;14.85;;;4.40;99.90;;;;;;4863189;29;20434;-73
2021/12/06 11:36:41;;;;;;;27.85;13.55;;;4.50;99.90;;;;;;4863465;29;20128;-75
2021/12/06 11:39:27;;;;;;;21.13;12.30;;;4.40;99.90;;;;;;4863522;29;20045;-73
2021/12/06 11:41:58;;;;;;;26.02;13.63;;;4.40;99.90;;;;;;4863780;29;20425;-73
2021/12/06 11:44:35;;;;;;;25.00;14.07;;;4.50;99.90;;;;;;4862795;29;20460;-73
2021/12/06 11:47:14;;;;;;;23.58;13.02;;;4.60;99.90;;;;;;4863685;29;20060;-71
2021/12/06 11:49:54;;;;;;;21.58;13.07;;;4.70;99.90;;;;;;4863816;29;20060;-72
2021/12/06 11:52:25;;;;;;;24.23;14.40;;;4.70;99.90;;;;;;4865327;29;20404;-73
2021/12/06 11:55:04;;;;;;;22.90;12.93;;;4.60;99.90;;;;;;4863094;29;20041;-73
2021/12/06 11:57:40;;;;;;;24.45;13.82;;;4.40;99.90;;;;;;4863069;29;20503;-75
2021/12/06 12:00:17;;;;;;;24.73;14.80;;;4.30;99.90;;;;;;4863069;29;20080;-72
2021/12/06 12:03:12;;;;;;;25.45;14.13;;;4.40;99.90;;;;;;4880110;29;20120;-72
2021/12/06 12:05:40;;;;;;;26.23;13.88;;;4.40;99.90;;;;;;4863138;29;20060;-75
2021/12/06 12:08:33;;;;;;;26.88;13.75;;;4.60;99.90;;;;;;4863425;29;20512;-74
2021/12/06 12:11:06;;;;;;;26.88;15.13;;;4.70;99.90;;;;;;4879814;29;20454;-72
2021/12/06 12:13:36;;;;;;;28.35;14.95;;;4.60;99.90;;;;;;4879709;29;20068;-72
2021/12/06 12:16:13;;;;;;;29.35;17.17;;;4.50;99.90;;;;;;4879937;29;20045;-72
2021/12/06 12:18:44;;;;;;;26.65;15.63;;;4.60;99.90;;;;;;4879761;29;20041;-74
2021/12/06 12:21:17;;;;;;;26.05;15.02;;;4.50;99.90;;;;;;4862649;29;20053;-74
2021/12/06 12:23:54;;;;;;;24.52;14.52;;;4.50;99.90;;;;;;4862682;29;20077;-74
2021/12/06 12:26:22;;;;;;;22.10;11.93;;;4.40;99.90;;;;;;4880080;29;20041;-74
2021/12/06 12:28:59;;;;;;;23.80;14.43;;;4.40;99.90;;;;;;4879417;29;20042;-74
2021/12/06 12:31:38;;;;;;;23.92;14.25;;;4.50;99.90;;;;;;4879724;29;20083;-74
2021/12/06 12:34:07;;;;;;;25.67;15.63;;;4.60;99.90;;;;;;4879839;29;20081;-74
2021/12/06 12:36:38;;;;;;;28.35;15.50;;;4.70;99.90;;;;;;4879444;29;20041;-74
2021/12/06 12:39:15;;;;;;;30.42;16.63;;;4.80;99.90;;;;;;4879515;29;20048;-74
2021/12/06 12:41:53;;;;;;;29.27;18.42;;;4.70;99.90;;;;;;4862745;29;20097;-74
2021/12/06 12:44:47;;;;;;;46.22;28.30;;;4.60;99.90;;;;;;4862549;29;20488;-74
2021/12/06 12:47:24;;;;;;;44.63;22.55;;;4.80;99.90;;;;;;4863017;29;20133;-74
2021/12/06 12:49:58;;;;;;;27.30;17.42;;;4.90;99.90;;;;;;4862426;29;20534;-74
2021/12/06 12:52:52;;;;;;;53.53;27.98;;;4.80;99.90;;;;;;4862892;29;20496;-74
2021/12/06 12:55:32;;;;;;;30.38;17.88;;;4.90;99.90;;;;;;4862901;29;20045;-74
2021/12/06 12:58:26;;;;;;;33.72;19.50;;;4.80;99.90;;;;;;4883429;29;20045;-74
2021/12/06 13:01:09;;;;;;;28.17;16.17;;;4.90;99.90;;;;;;4883238;29;20079;-74
2021/12/06 13:03:55;;;;;;;26.17;15.85;;;4.90;99.90;;;;;;4866321;29;20072;-74
2021/12/06 13:06:34;;;;;;;;;;;4.70;99.90;;;;;;4883570;29;20131;-74
2021/12/06 13:09:06;;;;;;;34.50;20.52;;;4.80;99.90;;;;;;4866370;29;19946;-74
2021/12/06 13:11:45;;;;;;;36.63;20.23;;;5.00;99.90;;;;;;4883126;29;20512;-74
2021/12/06 13:14:37;;;;;;;47.15;26.35;;;4.80;99.90;;;;;;4882986;29;20076;-74
2021/12/06 13:17:17;;;;;;;35.63;21.98;;;4.60;99.90;;;;;;4883280;29;20051;-74
2021/12/06 13:20:14;;;;;;;37.65;20.75;;;4.50;99.90;;;;;;4851105;29;20101;-74
2021/12/06 13:22:50;;;;;;;32.97;18.92;;;4.60;99.90;;;;;;4882732;29;20044;-74
2021/12/06 13:25:42;;;;;;;39.00;21.65;;;4.70;99.90;;;;;;4866867;29;20497;-73
2021/12/06 13:28:11;;;;;;;37.42;21.13;;;4.70;99.90;;;;;;4866430;29;20076;-73
2021/12/06 13:31:03;;;;;;;36.08;19.48;;;4.60;99.90;;;;;;4865718;29;20041;-73
2021/12/06 13:33:38;;;;;;;41.22;20.63;;;4.80;99.90;;;;;;4865994;29;20045;-73
2021/12/06 13:36:06;;;;;;;34.25;20.63;;;4.80;99.90;;;;;;4865902;29;20071;-74
2021/12/06 13:38:36;;;;;;;36.42;20.10;;;4.80;99.90;;;;;;4882592;29;20056;-74
2021/12/06 13:41:09;;;;;;;50.83;24.10;;;4.90;99.90;;;;;;4850247;29;20064;-74
2021/12/06 13:43:51;;;;;;;59.03;31.35;;;4.70;99.90;;;;;;4882542;29;20374;-73
2021/12/06 13:46:42;;;;;;;57.70;31.85;;;4.70;99.90;;;;;;4866257;29;20217;-75
2021/12/06 13:49:14;;;;;;;51.63;27.63;;;4.80;99.90;;;;;;4865889;29;20048;-74
2021/12/06 13:51:57;;;;;;;45.40;22.95;;;4.90;99.90;;;;;;4865448;29;20049;-74
2021/12/06 13:54:49;;;;;;;45.28;21.50;;;4.90;99.90;;;;;;4865340;29;20045;-74
2021/12/06 13:57:17;;;;;;;41.65;20.17;;;4.90;99.90;;;;;;4881973;29;20098;-74
2021/12/06 13:59:56;;;;;;;67.18;34.47;;;4.90;99.90;;;;;;4881632;29;20037;-74
2021/12/06 14:02:28;;;;;;;81.63;39.10;;;4.80;99.90;;;;;;4865424;29;20445;-74
2021/12/06 14:04:59;;;;;;;112.90;48.55;;;4.70;99.90;;;;;;4881663;29;20041;-74
2021/12/06 14:07:32;;;;;;;202.43;75.13;;;4.60;99.90;;;;;;4864685;29;20053;-74
2021/12/06 14:10:01;;;;;;;85.35;38.63;;;4.60;99.90;;;;;;4865110;29;20092;-74
2021/12/06 14:12:32;;;;;;;48.90;23.52;;;4.70;99.90;;;;;;4864817;29;20216;-74